KBUF Airport Information

Runway Information
Runway 05 Length 8102 ft width 150 ft
Elevation 679 ft Threshold 324 ft Heading 44
Runway 23 Length 8102 ft Width 150 ft
Elevation 721 ft Threshold 0 ft Heading 224
Runway 14 Length 7161 ft width 150 ft
Elevation 698 ft Threshold 320 ft Heading 127
Runway 32 Length 7161 ft Width 150 ft
Elevation 709 ft Threshold 720 ft Heading 307
Airport Frequencies
Type A/D Name APP/DEP Frequency 126.15 MHZ
Type ATIS Name ATIS Frequency 135.35 MHZ
Type CLD Name CLNC DEL Frequency 124.7 MHZ
Type GND Name GND Frequency 121.9 MHZ
Type RDO Name RDO Frequency 122.6 MHZ
Type TWR Name TWR Frequency 120.5 MHZ
Airport Navaids
Type NDB Name Klump Frequency 231 KHZ
Type VOR-DME Name Buffalo Frequency 116400 KHZ
Type NDB Name Plazz Frequency 204 KHZ
Airport Weather Information & NOTAM
ADDS - METARS form results

(1308 UTC 22 June 2018)
 
METAR text: KBUF 221254Z 06008KT 10SM FEW150 BKN200 BKN250 17/07 A2995 RMK AO2 SLP140 VIRGA DSNT ALQDS T01720072
Conditions at: KBUF (BUFFALO/CHEEKTOW, NY, US) observed 1254 UTC 22 June 2018
Temperature: 17.2°C (63°F)
Dewpoint: 7.2°C (45°F) [RH = 52%]
Pressure (altimeter): 29.95 inches Hg (1014.3 mb)
[Sea-level pressure: 1014.0 mb]
Winds: from the ENE (60 degrees) at 9 MPH (8 knots; 4.2 m/s)
Visibility: 10 or more miles (16+ km)
Ceiling: 20000 feet AGL
Clouds: few clouds at 15000 feet AGL
broken clouds at 20000 feet AGL
broken clouds at 25000 feet AGL
Weather: no significant weather observed at this time